sensor_id;sensor_type;location;lat;lon;timestamp;temperature;humidity
46378;DHT22;32083;47.360;9.650;2023-07-30T00:02:20;18.50;99.90
46378;DHT22;32083;47.360;9.650;2023-07-30T00:04:47;18.50;99.90
46378;DHT22;32083;47.360;9.650;2023-07-30T00:07:13;18.40;99.90
46378;DHT22;32083;47.360;9.650;2023-07-30T00:09:39;18.40;99.90
46378;DHT22;32083;47.360;9.650;2023-07-30T00:12:06;18.40;99.90
46378;DHT22;32083;47.360;9.650;2023-07-30T00:14:33;18.40;99.90
46378;DHT22;32083;47.360;9.650;2023-07-30T00:16:58;18.50;99.90
46378;DHT22;32083;47.360;9.650;2023-07-30T00:19:24;18.50;99.90
46378;DHT22;32083;47.360;9.650;2023-07-30T00:21:50;18.50;99.90
46378;DHT22;32083;47.360;9.650;2023-07-30T00:24:15;18.50;99.90
46378;DHT22;32083;47.360;9.650;2023-07-30T00:26:41;18.40;99.90
46378;DHT22;32083;47.360;9.650;2023-07-30T00:29:07;18.40;99.90
46378;DHT22;32083;47.360;9.650;2023-07-30T00:31:34;18.30;99.90
46378;DHT22;32083;47.360;9.650;2023-07-30T00:34:00;18.30;99.90
46378;DHT22;32083;47.360;9.650;2023-07-30T00:36:26;18.30;99.90
46378;DHT22;32083;47.360;9.650;2023-07-30T00:38:52;18.40;99.90
46378;DHT22;32083;47.360;9.650;2023-07-30T00:41:19;18.30;99.90
46378;DHT22;32083;47.360;9.650;2023-07-30T00:43:44;18.30;99.90
46378;DHT22;32083;47.360;9.650;2023-07-30T00:46:11;18.30;99.90
46378;DHT22;32083;47.360;9.650;2023-07-30T00:48:37;18.30;99.90
46378;DHT22;32083;47.360;9.650;2023-07-30T00:51:03;18.30;99.90
46378;DHT22;32083;47.360;9.650;2023-07-30T00:53:29;18.30;99.90
46378;DHT22;32083;47.360;9.650;2023-07-30T00:55:55;18.30;99.90
46378;DHT22;32083;47.360;9.650;2023-07-30T00:58:21;18.30;99.90
46378;DHT22;32083;47.360;9.650;2023-07-30T01:00:48;18.30;99.90
46378;DHT22;32083;47.360;9.650;2023-07-30T01:03:14;18.30;99.90
46378;DHT22;32083;47.360;9.650;2023-07-30T01:05:40;18.30;99.90
46378;DHT22;32083;47.360;9.650;2023-07-30T01:08:05;18.30;99.90
46378;DHT22;32083;47.360;9.650;2023-07-30T01:10:32;18.30;99.90
46378;DHT22;32083;47.360;9.650;2023-07-30T01:13:01;18.30;99.90
46378;DHT22;32083;47.360;9.650;2023-07-30T01:15:30;18.30;99.90
46378;DHT22;32083;47.360;9.650;2023-07-30T01:17:56;18.30;99.90
46378;DHT22;32083;47.360;9.650;2023-07-30T01:20:22;18.30;99.90
46378;DHT22;32083;47.360;9.650;2023-07-30T01:22:48;18.30;99.90
46378;DHT22;32083;47.360;9.650;2023-07-30T01:25:14;18.30;99.90
46378;DHT22;32083;47.360;9.650;2023-07-30T01:27:46;18.30;99.90
46378;DHT22;32083;47.360;9.650;2023-07-30T01:30:18;18.30;99.90
46378;DHT22;32083;47.360;9.650;2023-07-30T01:32:49;18.30;99.90
46378;DHT22;32083;47.360;9.650;2023-07-30T01:35:16;18.40;99.90
46378;DHT22;32083;47.360;9.650;2023-07-30T01:37:44;18.40;99.90
46378;DHT22;32083;47.360;9.650;2023-07-30T01:40:11;18.40;99.90
46378;DHT22;32083;47.360;9.650;2023-07-30T01:42:37;18.40;99.90
46378;DHT22;32083;47.360;9.650;2023-07-30T01:45:04;18.30;99.90
46378;DHT22;32083;47.360;9.650;2023-07-30T01:47:30;18.30;99.90
46378;DHT22;32083;47.360;9.650;2023-07-30T01:49:56;18.40;99.90
46378;DHT22;32083;47.360;9.650;2023-07-30T01:52:22;18.40;99.90
46378;DHT22;32083;47.360;9.650;2023-07-30T01:54:47;18.40;99.90
46378;DHT22;32083;47.360;9.650;2023-07-30T01:57:13;18.40;99.90
46378;DHT22;32083;47.360;9.650;2023-07-30T01:59:39;18.30;99.90
46378;DHT22;32083;47.360;9.650;2023-07-30T02:02:07;18.30;99.90
46378;DHT22;32083;47.360;9.650;2023-07-30T02:04:33;18.30;99.90
46378;DHT22;32083;47.360;9.650;2023-07-30T02:06:59;18.40;99.90
46378;DHT22;32083;47.360;9.650;2023-07-30T02:09:26;18.30;99.90
46378;DHT22;32083;47.360;9.650;2023-07-30T02:11:52;18.30;99.90
46378;DHT22;32083;47.360;9.650;2023-07-30T02:14:20;18.30;99.90
46378;DHT22;32083;47.360;9.650;2023-07-30T02:16:46;18.30;99.90
46378;DHT22;32083;47.360;9.650;2023-07-30T02:19:11;18.30;99.90
46378;DHT22;32083;47.360;9.650;2023-07-30T02:21:37;18.20;99.90
46378;DHT22;32083;47.360;9.650;2023-07-30T02:24:10;18.30;99.90
46378;DHT22;32083;47.360;9.650;2023-07-30T02:26:38;18.30;99.90
46378;DHT22;32083;47.360;9.650;2023-07-30T02:29:07;18.30;99.90
46378;DHT22;32083;47.360;9.650;2023-07-30T02:31:33;18.30;99.90
46378;DHT22;32083;47.360;9.650;2023-07-30T02:33:59;18.30;99.90
46378;DHT22;32083;47.360;9.650;2023-07-30T02:36:24;18.30;99.90
46378;DHT22;32083;47.360;9.650;2023-07-30T02:38:50;18.30;99.90
46378;DHT22;32083;47.360;9.650;2023-07-30T02:41:17;18.30;99.90
46378;DHT22;32083;47.360;9.650;2023-07-30T02:43:43;18.40;99.90
46378;DHT22;32083;47.360;9.650;2023-07-30T02:46:08;18.40;99.90
46378;DHT22;32083;47.360;9.650;2023-07-30T02:48:34;18.30;99.90
46378;DHT22;32083;47.360;9.650;2023-07-30T02:51:00;18.30;99.90
46378;DHT22;32083;47.360;9.650;2023-07-30T02:53:25;18.30;99.90
46378;DHT22;32083;47.360;9.650;2023-07-30T02:55:51;18.30;99.90
46378;DHT22;32083;47.360;9.650;2023-07-30T02:58:17;18.30;99.90
46378;DHT22;32083;47.360;9.650;2023-07-30T03:00:43;18.20;99.90
46378;DHT22;32083;47.360;9.650;2023-07-30T03:03:09;18.20;99.90
46378;DHT22;32083;47.360;9.650;2023-07-30T03:05:34;18.20;99.90
46378;DHT22;32083;47.360;9.650;2023-07-30T03:08:00;18.10;99.90
46378;DHT22;32083;47.360;9.650;2023-07-30T03:10:26;18.10;99.90
46378;DHT22;32083;47.360;9.650;2023-07-30T03:12:51;18.10;99.90
46378;DHT22;32083;47.360;9.650;2023-07-30T03:15:17;18.10;99.90
46378;DHT22;32083;47.360;9.650;2023-07-30T03:17:43;18.10;99.90
46378;DHT22;32083;47.360;9.650;2023-07-30T03:20:09;18.00;99.90
46378;DHT22;32083;47.360;9.650;2023-07-30T03:22:34;18.00;99.90
46378;DHT22;32083;47.360;9.650;2023-07-30T03:25:00;17.90;99.90
46378;DHT22;32083;47.360;9.650;2023-07-30T03:27:26;17.90;99.90
46378;DHT22;32083;47.360;9.650;2023-07-30T03:29:52;17.90;99.90
46378;DHT22;32083;47.360;9.650;2023-07-30T03:32:17;17.80;99.90
46378;DHT22;32083;47.360;9.650;2023-07-30T03:34:43;17.80;99.90
46378;DHT22;32083;47.360;9.650;2023-07-30T03:37:09;17.90;99.90
46378;DHT22;32083;47.360;9.650;2023-07-30T03:39:35;17.80;99.90
46378;DHT22;32083;47.360;9.650;2023-07-30T03:42:01;17.80;99.90
46378;DHT22;32083;47.360;9.650;2023-07-30T03:44:26;17.80;99.90
46378;DHT22;32083;47.360;9.650;2023-07-30T03:46:52;17.70;99.90
46378;DHT22;32083;47.360;9.650;2023-07-30T03:49:18;17.60;99.90
46378;DHT22;32083;47.360;9.650;2023-07-30T03:51:43;17.70;99.90
46378;DHT22;32083;47.360;9.650;2023-07-30T03:54:09;17.70;99.90
46378;DHT22;32083;47.360;9.650;2023-07-30T03:56:35;17.70;99.90
46378;DHT22;32083;47.360;9.650;2023-07-30T03:59:00;17.70;99.90
46378;DHT22;32083;47.360;9.650;2023-07-30T04:01:26;17.60;99.90
46378;DHT22;32083;47.360;9.650;2023-07-30T04:03:53;17.60;99.90
46378;DHT22;32083;47.360;9.650;2023-07-30T04:06:18;17.60;99.90
46378;DHT22;32083;47.360;9.650;2023-07-30T04:08:44;17.60;99.90
46378;DHT22;32083;47.360;9.650;2023-07-30T04:11:10;17.60;99.90
46378;DHT22;32083;47.360;9.650;2023-07-30T04:13:37;17.60;99.90
46378;DHT22;32083;47.360;9.650;2023-07-30T04:16:02;17.60;99.90
46378;DHT22;32083;47.360;9.650;2023-07-30T04:18:29;17.70;99.90
46378;DHT22;32083;47.360;9.650;2023-07-30T04:20:55;17.70;99.90
46378;DHT22;32083;47.360;9.650;2023-07-30T04:23:23;17.70;99.90
46378;DHT22;32083;47.360;9.650;2023-07-30T04:25:49;17.70;99.90
46378;DHT22;32083;47.360;9.650;2023-07-30T04:28:16;17.80;99.90
46378;DHT22;32083;47.360;9.650;2023-07-30T04:30:44;17.80;99.90
46378;DHT22;32083;47.360;9.650;2023-07-30T04:33:12;17.80;99.90
46378;DHT22;32083;47.360;9.650;2023-07-30T04:35:40;17.80;99.90
46378;DHT22;32083;47.360;9.650;2023-07-30T04:38:06;17.80;99.90
46378;DHT22;32083;47.360;9.650;2023-07-30T04:40:32;17.80;99.90
46378;DHT22;32083;47.360;9.650;2023-07-30T04:42:57;17.90;99.90
46378;DHT22;32083;47.360;9.650;2023-07-30T04:45:23;17.90;99.90
46378;DHT22;32083;47.360;9.650;2023-07-30T04:47:49;17.90;99.90
46378;DHT22;32083;47.360;9.650;2023-07-30T04:50:15;17.90;99.90
46378;DHT22;32083;47.360;9.650;2023-07-30T04:52:41;17.90;99.90
46378;DHT22;32083;47.360;9.650;2023-07-30T04:55:07;18.00;99.90
46378;DHT22;32083;47.360;9.650;2023-07-30T04:57:34;17.90;99.90
46378;DHT22;32083;47.360;9.650;2023-07-30T05:00:00;17.90;99.90
46378;DHT22;32083;47.360;9.650;2023-07-30T05:02:25;18.00;99.90
46378;DHT22;32083;47.360;9.650;2023-07-30T05:04:51;18.10;99.90
46378;DHT22;32083;47.360;9.650;2023-07-30T05:07:17;18.10;99.90
46378;DHT22;32083;47.360;9.650;2023-07-30T05:09:43;18.20;99.90
46378;DHT22;32083;47.360;9.650;2023-07-30T05:12:08;18.30;99.90
46378;DHT22;32083;47.360;9.650;2023-07-30T05:14:34;18.30;99.90
46378;DHT22;32083;47.360;9.650;2023-07-30T05:17:00;18.30;99.90
46378;DHT22;32083;47.360;9.650;2023-07-30T05:19:26;18.30;99.90
46378;DHT22;32083;47.360;9.650;2023-07-30T05:21:51;18.30;99.90
46378;DHT22;32083;47.360;9.650;2023-07-30T05:24:17;18.30;99.90
46378;DHT22;32083;47.360;9.650;2023-07-30T05:26:43;18.30;99.90
46378;DHT22;32083;47.360;9.650;2023-07-30T05:29:09;18.30;99.90
46378;DHT22;32083;47.360;9.650;2023-07-30T05:31:39;18.30;99.90
46378;DHT22;32083;47.360;9.650;2023-07-30T05:34:05;18.30;99.90
46378;DHT22;32083;47.360;9.650;2023-07-30T05:36:31;18.30;99.90
46378;DHT22;32083;47.360;9.650;2023-07-30T05:38:57;18.30;99.90
46378;DHT22;32083;47.360;9.650;2023-07-30T05:41:22;18.20;99.90
46378;DHT22;32083;47.360;9.650;2023-07-30T05:43:48;18.30;99.90
46378;DHT22;32083;47.360;9.650;2023-07-30T05:46:16;18.20;99.90
46378;DHT22;32083;47.360;9.650;2023-07-30T05:48:42;18.10;99.90
46378;DHT22;32083;47.360;9.650;2023-07-30T05:51:08;18.10;99.90
46378;DHT22;32083;47.360;9.650;2023-07-30T05:53:33;18.10;99.90
46378;DHT22;32083;47.360;9.650;2023-07-30T05:56:02;18.20;99.90
46378;DHT22;32083;47.360;9.650;2023-07-30T05:58:28;18.10;99.90
46378;DHT22;32083;47.360;9.650;2023-07-30T06:00:53;18.20;99.90
46378;DHT22;32083;47.360;9.650;2023-07-30T06:03:22;18.20;99.90
46378;DHT22;32083;47.360;9.650;2023-07-30T06:05:48;18.30;99.90
46378;DHT22;32083;47.360;9.650;2023-07-30T06:08:13;18.30;99.90
46378;DHT22;32083;47.360;9.650;2023-07-30T06:10:39;18.40;99.90
46378;DHT22;32083;47.360;9.650;2023-07-30T06:13:35;18.40;99.90
46378;DHT22;32083;47.360;9.650;2023-07-30T06:16:21;18.50;99.90
46378;DHT22;32083;47.360;9.650;2023-07-30T06:18:49;18.50;99.90
46378;DHT22;32083;47.360;9.650;2023-07-30T06:21:18;18.50;99.90
46378;DHT22;32083;47.360;9.650;2023-07-30T06:23:47;18.40;99.90
46378;DHT22;32083;47.360;9.650;2023-07-30T06:26:12;18.40;99.90
46378;DHT22;32083;47.360;9.650;2023-07-30T06:28:38;18.50;99.90
46378;DHT22;32083;47.360;9.650;2023-07-30T06:31:12;18.50;99.90
46378;DHT22;32083;47.360;9.650;2023-07-30T06:33:44;18.50;99.90
46378;DHT22;32083;47.360;9.650;2023-07-30T06:36:16;18.50;99.90
46378;DHT22;32083;47.360;9.650;2023-07-30T06:52:12;19.00;99.90
46378;DHT22;32083;47.360;9.650;2023-07-30T06:54:38;19.20;99.90
46378;DHT22;32083;47.360;9.650;2023-07-30T06:57:04;19.30;99.90
46378;DHT22;32083;47.360;9.650;2023-07-30T06:59:30;19.40;99.90
46378;DHT22;32083;47.360;9.650;2023-07-30T07:02:13;19.40;99.90
46378;DHT22;32083;47.360;9.650;2023-07-30T07:04:39;19.50;99.90
46378;DHT22;32083;47.360;9.650;2023-07-30T07:07:05;19.60;99.90
46378;DHT22;32083;47.360;9.650;2023-07-30T07:09:31;19.50;99.90
46378;DHT22;32083;47.360;9.650;2023-07-30T07:11:58;19.50;99.90
46378;DHT22;32083;47.360;9.650;2023-07-30T07:14:24;19.50;99.90
46378;DHT22;32083;47.360;9.650;2023-07-30T07:16:51;19.40;99.90
46378;DHT22;32083;47.360;9.650;2023-07-30T07:19:17;19.30;99.90
46378;DHT22;32083;47.360;9.650;2023-07-30T07:21:43;19.30;99.90
46378;DHT22;32083;47.360;9.650;2023-07-30T07:24:09;19.50;99.90
46378;DHT22;32083;47.360;9.650;2023-07-30T07:26:35;19.60;99.90
46378;DHT22;32083;47.360;9.650;2023-07-30T07:29:01;19.70;99.90
46378;DHT22;32083;47.360;9.650;2023-07-30T07:31:26;19.70;99.90
46378;DHT22;32083;47.360;9.650;2023-07-30T07:33:53;19.70;99.90
46378;DHT22;32083;47.360;9.650;2023-07-30T07:36:18;19.70;99.90
46378;DHT22;32083;47.360;9.650;2023-07-30T07:38:44;19.70;99.90
46378;DHT22;32083;47.360;9.650;2023-07-30T07:41:14;19.80;99.90
46378;DHT22;32083;47.360;9.650;2023-07-30T07:43:46;19.80;99.90
46378;DHT22;32083;47.360;9.650;2023-07-30T07:46:12;19.90;99.90
46378;DHT22;32083;47.360;9.650;2023-07-30T07:48:42;20.10;99.90
46378;DHT22;32083;47.360;9.650;2023-07-30T07:51:12;20.20;99.90
46378;DHT22;32083;47.360;9.650;2023-07-30T07:53:38;20.30;99.90
46378;DHT22;32083;47.360;9.650;2023-07-30T07:56:04;20.30;99.90
46378;DHT22;32083;47.360;9.650;2023-07-30T07:58:31;20.40;99.90
46378;DHT22;32083;47.360;9.650;2023-07-30T08:00:57;20.60;99.90
46378;DHT22;32083;47.360;9.650;2023-07-30T08:03:24;21.10;99.90
46378;DHT22;32083;47.360;9.650;2023-07-30T08:05:52;21.30;99.90
46378;DHT22;32083;47.360;9.650;2023-07-30T08:08:18;21.40;99.90
46378;DHT22;32083;47.360;9.650;2023-07-30T08:10:44;21.30;99.90
46378;DHT22;32083;47.360;9.650;2023-07-30T08:13:13;21.40;99.90
46378;DHT22;32083;47.360;9.650;2023-07-30T08:15:39;21.80;99.90
46378;DHT22;32083;47.360;9.650;2023-07-30T08:18:05;21.70;99.90
46378;DHT22;32083;47.360;9.650;2023-07-30T08:20:31;21.50;99.90
46378;DHT22;32083;47.360;9.650;2023-07-30T08:22:57;21.30;99.90
46378;DHT22;32083;47.360;9.650;2023-07-30T08:25:23;21.20;99.90
46378;DHT22;32083;47.360;9.650;2023-07-30T08:27:49;21.10;99.90
46378;DHT22;32083;47.360;9.650;2023-07-30T08:30:15;21.00;99.90
46378;DHT22;32083;47.360;9.650;2023-07-30T08:32:41;21.00;99.90
46378;DHT22;32083;47.360;9.650;2023-07-30T08:35:09;20.90;99.90
46378;DHT22;32083;47.360;9.650;2023-07-30T08:37:35;20.80;99.90
46378;DHT22;32083;47.360;9.650;2023-07-30T08:40:01;20.80;99.90
46378;DHT22;32083;47.360;9.650;2023-07-30T08:42:28;20.70;99.90
46378;DHT22;32083;47.360;9.650;2023-07-30T08:44:54;20.80;99.90
46378;DHT22;32083;47.360;9.650;2023-07-30T08:47:20;20.90;99.90
46378;DHT22;32083;47.360;9.650;2023-07-30T08:49:46;21.10;99.90
46378;DHT22;32083;47.360;9.650;2023-07-30T08:52:13;21.20;99.90
46378;DHT22;32083;47.360;9.650;2023-07-30T08:54:42;21.30;99.90
46378;DHT22;32083;47.360;9.650;2023-07-30T08:57:09;21.50;99.90
46378;DHT22;32083;47.360;9.650;2023-07-30T08:59:42;21.60;99.90
46378;DHT22;32083;47.360;9.650;2023-07-30T09:02:24;21.60;99.90
46378;DHT22;32083;47.360;9.650;2023-07-30T09:04:53;21.60;99.90
46378;DHT22;32083;47.360;9.650;2023-07-30T09:07:24;21.80;99.90
46378;DHT22;32083;47.360;9.650;2023-07-30T09:09:50;22.00;99.90
46378;DHT22;32083;47.360;9.650;2023-07-30T09:12:16;22.30;99.90
46378;DHT22;32083;47.360;9.650;2023-07-30T09:14:43;22.10;99.90
46378;DHT22;32083;47.360;9.650;2023-07-30T09:17:18;22.20;99.90
46378;DHT22;32083;47.360;9.650;2023-07-30T09:19:44;22.20;99.90
46378;DHT22;32083;47.360;9.650;2023-07-30T09:22:13;22.50;99.90
46378;DHT22;32083;47.360;9.650;2023-07-30T09:24:45;22.60;99.90
46378;DHT22;32083;47.360;9.650;2023-07-30T09:27:11;22.70;99.90
46378;DHT22;32083;47.360;9.650;2023-07-30T09:29:37;22.80;99.90
46378;DHT22;32083;47.360;9.650;2023-07-30T09:32:03;22.80;99.90
46378;DHT22;32083;47.360;9.650;2023-07-30T09:34:29;22.80;99.90
46378;DHT22;32083;47.360;9.650;2023-07-30T09:36:56;22.80;99.90
46378;DHT22;32083;47.360;9.650;2023-07-30T09:39:24;22.70;99.90
46378;DHT22;32083;47.360;9.650;2023-07-30T09:41:52;22.60;99.90
46378;DHT22;32083;47.360;9.650;2023-07-30T09:44:20;22.80;99.90
46378;DHT22;32083;47.360;9.650;2023-07-30T09:46:48;23.00;99.90
46378;DHT22;32083;47.360;9.650;2023-07-30T09:49:15;23.20;99.90
46378;DHT22;32083;47.360;9.650;2023-07-30T09:51:41;23.40;99.90
46378;DHT22;32083;47.360;9.650;2023-07-30T09:54:09;23.40;99.30
46378;DHT22;32083;47.360;9.650;2023-07-30T09:56:39;23.40;98.90
46378;DHT22;32083;47.360;9.650;2023-07-30T09:59:06;23.50;99.70
46378;DHT22;32083;47.360;9.650;2023-07-30T10:01:47;23.70;99.90
46378;DHT22;32083;47.360;9.650;2023-07-30T10:04:20;23.90;99.90
46378;DHT22;32083;47.360;9.650;2023-07-30T10:06:48;24.00;98.50
46378;DHT22;32083;47.360;9.650;2023-07-30T10:09:17;24.00;98.20
46378;DHT22;32083;47.360;9.650;2023-07-30T10:11:46;23.70;97.90
46378;DHT22;32083;47.360;9.650;2023-07-30T10:14:15;23.60;98.60
46378;DHT22;32083;47.360;9.650;2023-07-30T10:16:53;23.40;98.90
46378;DHT22;32083;47.360;9.650;2023-07-30T10:19:24;23.20;97.90
46378;DHT22;32083;47.360;9.650;2023-07-30T10:21:50;23.20;98.40
46378;DHT22;32083;47.360;9.650;2023-07-30T10:24:17;23.20;98.70
46378;DHT22;32083;47.360;9.650;2023-07-30T10:26:42;23.20;98.40
46378;DHT22;32083;47.360;9.650;2023-07-30T10:29:20;23.20;99.00
46378;DHT22;32083;47.360;9.650;2023-07-30T10:31:55;23.10;98.90
46378;DHT22;32083;47.360;9.650;2023-07-30T10:34:21;23.10;99.40
46378;DHT22;32083;47.360;9.650;2023-07-30T10:36:49;22.90;99.90
46378;DHT22;32083;47.360;9.650;2023-07-30T10:39:16;22.80;99.90
46378;DHT22;32083;47.360;9.650;2023-07-30T10:41:44;22.60;99.90
46378;DHT22;32083;47.360;9.650;2023-07-30T10:44:27;22.40;99.90
46378;DHT22;32083;47.360;9.650;2023-07-30T10:46:58;22.30;99.90
46378;DHT22;32083;47.360;9.650;2023-07-30T10:49:25;22.10;99.90
46378;DHT22;32083;47.360;9.650;2023-07-30T10:51:52;21.90;99.90
46378;DHT22;32083;47.360;9.650;2023-07-30T10:54:18;21.90;99.90
46378;DHT22;32083;47.360;9.650;2023-07-30T10:56:44;21.90;99.90
46378;DHT22;32083;47.360;9.650;2023-07-30T10:59:11;21.80;99.90
46378;DHT22;32083;47.360;9.650;2023-07-30T11:01:39;21.80;99.90
46378;DHT22;32083;47.360;9.650;2023-07-30T11:04:08;21.70;99.90
46378;DHT22;32083;47.360;9.650;2023-07-30T11:06:34;21.60;99.90
46378;DHT22;32083;47.360;9.650;2023-07-30T11:09:00;21.60;99.90
46378;DHT22;32083;47.360;9.650;2023-07-30T11:11:26;21.50;99.90
46378;DHT22;32083;47.360;9.650;2023-07-30T11:13:52;21.40;99.90
46378;DHT22;32083;47.360;9.650;2023-07-30T11:16:18;21.30;99.90
46378;DHT22;32083;47.360;9.650;2023-07-30T11:18:44;21.30;99.90
46378;DHT22;32083;47.360;9.650;2023-07-30T11:21:18;21.30;99.90
46378;DHT22;32083;47.360;9.650;2023-07-30T11:23:45;21.30;99.90
46378;DHT22;32083;47.360;9.650;2023-07-30T11:26:16;21.30;99.90
46378;DHT22;32083;47.360;9.650;2023-07-30T11:28:43;21.20;99.90
46378;DHT22;32083;47.360;9.650;2023-07-30T11:31:12;21.10;99.90
46378;DHT22;32083;47.360;9.650;2023-07-30T11:33:43;21.40;99.90
46378;DHT22;32083;47.360;9.650;2023-07-30T11:36:15;21.50;99.90
46378;DHT22;32083;47.360;9.650;2023-07-30T11:38:42;21.60;99.90
46378;DHT22;32083;47.360;9.650;2023-07-30T11:41:09;21.90;99.90
46378;DHT22;32083;47.360;9.650;2023-07-30T11:43:41;22.10;99.90
46378;DHT22;32083;47.360;9.650;2023-07-30T11:48:34;22.60;99.90
46378;DHT22;32083;47.360;9.650;2023-07-30T11:51:00;23.00;99.90
46378;DHT22;32083;47.360;9.650;2023-07-30T11:53:46;23.10;99.90
46378;DHT22;32083;47.360;9.650;2023-07-30T11:58:47;23.50;99.90
46378;DHT22;32083;47.360;9.650;2023-07-30T12:01:18;23.90;99.90
46378;DHT22;32083;47.360;9.650;2023-07-30T12:03:44;24.00;99.90
46378;DHT22;32083;47.360;9.650;2023-07-30T12:06:11;24.10;99.90
46378;DHT22;32083;47.360;9.650;2023-07-30T12:08:38;24.20;99.90
46378;DHT22;32083;47.360;9.650;2023-07-30T12:11:06;24.20;99.90
46378;DHT22;32083;47.360;9.650;2023-07-30T12:13:32;24.10;99.10
46378;DHT22;32083;47.360;9.650;2023-07-30T12:15:59;24.20;99.90
46378;DHT22;32083;47.360;9.650;2023-07-30T12:18:26;24.30;99.40
46378;DHT22;32083;47.360;9.650;2023-07-30T12:20:54;24.30;99.00
46378;DHT22;32083;47.360;9.650;2023-07-30T12:23:20;24.00;97.60
46378;DHT22;32083;47.360;9.650;2023-07-30T12:25:50;23.80;97.30
46378;DHT22;32083;47.360;9.650;2023-07-30T12:28:18;23.80;97.40
46378;DHT22;32083;47.360;9.650;2023-07-30T12:30:45;23.70;97.50
46378;DHT22;32083;47.360;9.650;2023-07-30T12:33:11;24.00;98.70
46378;DHT22;32083;47.360;9.650;2023-07-30T12:35:37;24.10;97.50
46378;DHT22;32083;47.360;9.650;2023-07-30T12:38:03;24.20;97.80
46378;DHT22;32083;47.360;9.650;2023-07-30T12:40:29;24.30;97.90
46378;DHT22;32083;47.360;9.650;2023-07-30T12:43:03;24.30;97.10
46378;DHT22;32083;47.360;9.650;2023-07-30T12:45:30;24.20;96.40
46378;DHT22;32083;47.360;9.650;2023-07-30T12:47:57;24.30;97.00
46378;DHT22;32083;47.360;9.650;2023-07-30T12:50:23;24.40;96.20
46378;DHT22;32083;47.360;9.650;2023-07-30T12:52:49;24.70;95.80
46378;DHT22;32083;47.360;9.650;2023-07-30T12:55:15;24.80;97.00
46378;DHT22;32083;47.360;9.650;2023-07-30T12:57:41;25.00;96.40
46378;DHT22;32083;47.360;9.650;2023-07-30T13:00:07;25.00;95.30
46378;DHT22;32083;47.360;9.650;2023-07-30T13:02:33;24.90;94.10
46378;DHT22;32083;47.360;9.650;2023-07-30T13:05:00;24.90;95.40
46378;DHT22;32083;47.360;9.650;2023-07-30T13:07:26;25.10;95.10
46378;DHT22;32083;47.360;9.650;2023-07-30T13:10:12;25.30;94.30
46378;DHT22;32083;47.360;9.650;2023-07-30T13:12:38;25.50;94.10
46378;DHT22;32083;47.360;9.650;2023-07-30T13:15:04;25.70;94.60
46378;DHT22;32083;47.360;9.650;2023-07-30T13:17:31;25.70;95.30
46378;DHT22;32083;47.360;9.650;2023-07-30T13:19:57;25.60;95.80
46378;DHT22;32083;47.360;9.650;2023-07-30T13:22:23;25.30;95.80
46378;DHT22;32083;47.360;9.650;2023-07-30T13:24:49;25.00;96.30
46378;DHT22;32083;47.360;9.650;2023-07-30T13:27:16;24.80;96.00
46378;DHT22;32083;47.360;9.650;2023-07-30T13:29:42;24.60;95.80
46378;DHT22;32083;47.360;9.650;2023-07-30T13:32:08;24.40;96.80
46378;DHT22;32083;47.360;9.650;2023-07-30T13:34:34;24.60;96.30
46378;DHT22;32083;47.360;9.650;2023-07-30T13:37:00;24.60;95.70
46378;DHT22;32083;47.360;9.650;2023-07-30T13:39:27;24.50;95.80
46378;DHT22;32083;47.360;9.650;2023-07-30T13:41:53;24.30;96.60
46378;DHT22;32083;47.360;9.650;2023-07-30T13:44:21;24.20;96.30
46378;DHT22;32083;47.360;9.650;2023-07-30T13:49:26;24.70;96.10
46378;DHT22;32083;47.360;9.650;2023-07-30T13:54:27;25.10;96.40
46378;DHT22;32083;47.360;9.650;2023-07-30T13:56:53;25.30;94.90
46378;DHT22;32083;47.360;9.650;2023-07-30T14:02:06;25.30;95.00
46378;DHT22;32083;47.360;9.650;2023-07-30T14:04:32;25.40;94.90
46378;DHT22;32083;47.360;9.650;2023-07-30T14:07:00;25.50;94.40
46378;DHT22;32083;47.360;9.650;2023-07-30T14:09:29;25.50;94.10
46378;DHT22;32083;47.360;9.650;2023-07-30T14:12:03;25.40;94.30
46378;DHT22;32083;47.360;9.650;2023-07-30T14:14:29;25.40;93.90
46378;DHT22;32083;47.360;9.650;2023-07-30T14:16:55;25.10;93.60
46378;DHT22;32083;47.360;9.650;2023-07-30T14:19:21;25.00;93.80
46378;DHT22;32083;47.360;9.650;2023-07-30T14:21:48;25.00;94.10
46378;DHT22;32083;47.360;9.650;2023-07-30T14:24:14;25.00;93.40
46378;DHT22;32083;47.360;9.650;2023-07-30T14:26:40;25.00;93.70
46378;DHT22;32083;47.360;9.650;2023-07-30T14:29:06;25.00;94.20
46378;DHT22;32083;47.360;9.650;2023-07-30T14:31:32;25.20;94.10
46378;DHT22;32083;47.360;9.650;2023-07-30T14:33:58;25.20;93.30
46378;DHT22;32083;47.360;9.650;2023-07-30T14:36:26;25.20;92.90
46378;DHT22;32083;47.360;9.650;2023-07-30T14:38:52;25.30;93.30
46378;DHT22;32083;47.360;9.650;2023-07-30T14:41:18;25.30;93.30
46378;DHT22;32083;47.360;9.650;2023-07-30T14:43:44;25.40;93.50
46378;DHT22;32083;47.360;9.650;2023-07-30T14:46:10;25.60;94.00
46378;DHT22;32083;47.360;9.650;2023-07-30T14:48:42;25.70;92.60
46378;DHT22;32083;47.360;9.650;2023-07-30T14:51:09;25.50;92.40
46378;DHT22;32083;47.360;9.650;2023-07-30T14:53:35;25.50;93.70
46378;DHT22;32083;47.360;9.650;2023-07-30T14:56:02;25.30;93.70
46378;DHT22;32083;47.360;9.650;2023-07-30T14:58:27;25.00;93.60
46378;DHT22;32083;47.360;9.650;2023-07-30T15:00:53;24.80;93.20
46378;DHT22;32083;47.360;9.650;2023-07-30T15:03:19;24.60;93.80
46378;DHT22;32083;47.360;9.650;2023-07-30T15:05:45;24.50;93.50
46378;DHT22;32083;47.360;9.650;2023-07-30T15:08:11;24.40;92.90
46378;DHT22;32083;47.360;9.650;2023-07-30T15:10:37;24.20;93.70
46378;DHT22;32083;47.360;9.650;2023-07-30T15:13:03;24.40;93.00
46378;DHT22;32083;47.360;9.650;2023-07-30T15:15:29;24.70;93.10
46378;DHT22;32083;47.360;9.650;2023-07-30T15:17:55;24.70;92.60
46378;DHT22;32083;47.360;9.650;2023-07-30T15:20:21;24.50;92.50
46378;DHT22;32083;47.360;9.650;2023-07-30T15:22:47;24.40;92.60
46378;DHT22;32083;47.360;9.650;2023-07-30T15:25:13;24.30;92.90
46378;DHT22;32083;47.360;9.650;2023-07-30T15:27:39;24.20;91.70
46378;DHT22;32083;47.360;9.650;2023-07-30T15:30:05;24.10;92.40
46378;DHT22;32083;47.360;9.650;2023-07-30T15:32:31;24.20;91.90
46378;DHT22;32083;47.360;9.650;2023-07-30T15:34:58;24.30;91.80
46378;DHT22;32083;47.360;9.650;2023-07-30T15:37:24;24.10;91.80
46378;DHT22;32083;47.360;9.650;2023-07-30T15:39:50;24.10;92.20
46378;DHT22;32083;47.360;9.650;2023-07-30T15:42:17;24.00;91.80
46378;DHT22;32083;47.360;9.650;2023-07-30T15:44:43;24.00;92.20
46378;DHT22;32083;47.360;9.650;2023-07-30T15:47:08;23.90;91.70
46378;DHT22;32083;47.360;9.650;2023-07-30T15:49:36;23.80;92.00
46378;DHT22;32083;47.360;9.650;2023-07-30T15:52:02;23.80;91.80
46378;DHT22;32083;47.360;9.650;2023-07-30T15:54:36;23.70;92.40
46378;DHT22;32083;47.360;9.650;2023-07-30T15:57:02;23.60;92.20